createdAt,value
2023-03-13T00:04:35.588Z,5.375
2023-03-13T00:09:36.401Z,5.4375
2023-03-13T00:14:37.416Z,5.5
2023-03-13T00:19:38.592Z,5.5
2023-03-13T00:24:39.509Z,5.5
2023-03-13T00:29:40.425Z,5.625
2023-03-13T00:34:41.240Z,5.625
2023-03-13T00:39:42.135Z,5.6875
2023-03-13T00:44:43.039Z,5.6875
2023-03-13T00:49:43.946Z,5.6875
2023-03-13T00:54:44.921Z,5.6875
2023-03-13T00:59:45.699Z,5.6875
2023-03-13T01:04:47.137Z,5.75
2023-03-13T01:09:47.801Z,5.75
2023-03-13T01:14:48.652Z,5.875
2023-03-13T01:19:49.532Z,5.8125
2023-03-13T01:24:50.481Z,5.8125
2023-03-13T01:29:51.665Z,5.8125
2023-03-13T01:34:52.452Z,5.875
2023-03-13T01:39:53.458Z,5.9375
2023-03-13T01:44:54.336Z,5.9375
2023-03-13T01:49:55.242Z,5.9375
2023-03-13T01:54:56.099Z,5.875
2023-03-13T01:59:57.038Z,5.9375
2023-03-13T02:04:58.261Z,5.9375
2023-03-13T02:15:29.701Z,5.9375
2023-03-13T02:26:01.218Z,5.9375
2023-03-13T02:31:01.792Z,6
2023-03-13T02:36:02.833Z,6
2023-03-13T02:46:34.091Z,6.125
2023-03-13T02:57:05.653Z,6.25
2023-03-13T03:02:06.506Z,6.25
2023-03-13T03:07:07.647Z,6.25
2023-03-13T03:12:08.511Z,6.3125
2023-03-13T03:22:40.318Z,6.4375
2023-03-13T03:27:40.981Z,6.375
2023-03-13T03:32:41.986Z,6.1875
2023-03-13T03:37:42.880Z,6.25
2023-03-13T03:42:43.750Z,6.25
2023-03-13T03:47:44.666Z,6.25
2023-03-13T03:52:45.750Z,6.25
2023-03-13T03:57:46.922Z,6.3125
2023-03-13T04:02:47.796Z,6.375
2023-03-13T04:07:48.931Z,6.375
2023-03-13T04:12:49.900Z,6.3125
2023-03-13T04:17:50.927Z,6.3125
2023-03-13T04:22:51.827Z,6.375
2023-03-13T04:27:52.706Z,6.375
2023-03-13T04:32:56.110Z,6.375
2023-03-13T04:37:57.218Z,6.375
2023-03-13T04:48:29.295Z,6.5
2023-03-13T04:53:30.131Z,6.4375
2023-03-13T04:58:31.153Z,6.4375
2023-03-13T05:09:03.064Z,6.4375
2023-03-13T05:14:03.785Z,6.4375
2023-03-13T05:19:04.798Z,6.4375
2023-03-13T05:24:05.866Z,6.4375
2023-03-13T05:29:06.706Z,6.375
2023-03-13T05:39:38.582Z,6.4375
2023-03-13T05:44:39.224Z,6.4375
2023-03-13T05:49:40.254Z,6.5
2023-03-13T05:54:41.240Z,6.5625
2023-03-13T05:59:42.158Z,6.5
2023-03-13T06:04:43.303Z,6.4375
2023-03-13T06:09:44.057Z,6.5625
2023-03-13T06:14:45.077Z,6.625
2023-03-13T06:19:46.073Z,6.5625
2023-03-13T06:24:46.997Z,6.625
2023-03-13T06:29:48.028Z,6.5625
2023-03-13T06:34:48.988Z,6.625
2023-03-13T06:39:49.983Z,6.6875
2023-03-13T06:44:50.675Z,6.8125
2023-03-13T06:49:51.687Z,6.8125
2023-03-13T06:54:52.825Z,6.875
2023-03-13T06:59:53.422Z,6.9375
2023-03-13T07:04:54.289Z,6.9375
2023-03-13T07:09:55.289Z,7.0625
2023-03-13T07:14:56.268Z,7.0625
2023-03-13T07:19:57.459Z,7.125
2023-03-13T07:24:58.380Z,6.0625
2023-03-13T07:29:59.147Z,7.1875
2023-03-13T07:35:00.155Z,7.25
2023-03-13T07:40:01.274Z,7.375
2023-03-13T07:45:02.238Z,7.4375
2023-03-13T07:50:03.476Z,7.5
2023-03-13T07:55:04.330Z,7.5625
2023-03-13T08:00:05.526Z,7.4375
2023-03-13T08:05:08.968Z,7.5625
2023-03-13T08:10:09.749Z,7.625
2023-03-13T08:15:11.002Z,7.625
2023-03-13T08:20:11.499Z,7.6875
2023-03-13T08:25:12.341Z,7.75
2023-03-13T08:30:13.309Z,7.75
2023-03-13T08:35:14.268Z,7.8125
2023-03-13T08:40:15.412Z,7.9375
2023-03-13T08:45:16.613Z,8
2023-03-13T08:50:17.661Z,8.0625
2023-03-13T08:55:18.747Z,8.0625
2023-03-13T09:00:20.159Z,8.125
2023-03-13T09:05:21.340Z,8.0625
2023-03-13T09:10:22.221Z,8.25
2023-03-13T09:15:23.293Z,8.375
2023-03-13T09:20:24.547Z,8.1875
2023-03-13T09:25:25.649Z,8.375
2023-03-13T09:30:26.572Z,8.375
2023-03-13T09:35:27.645Z,8.375
2023-03-13T09:40:28.972Z,8.25
2023-03-13T09:45:29.893Z,8.5625
2023-03-13T09:50:30.789Z,8.6875
2023-03-13T09:55:31.679Z,8.75
2023-03-13T10:00:32.576Z,8.75
2023-03-13T10:05:33.611Z,8.8125
2023-03-13T10:10:34.434Z,8.8125
2023-03-13T10:15:35.418Z,8.875
2023-03-13T10:20:36.459Z,9.125
2023-03-13T10:25:37.434Z,9.1875
2023-03-13T10:30:38.334Z,9.5
2023-03-13T10:35:39.258Z,9.5
2023-03-13T10:40:40.222Z,9.75
2023-03-13T10:45:41.162Z,10
2023-03-13T10:50:42.200Z,10.1875
2023-03-13T10:55:43.157Z,10.5
2023-03-13T11:00:44.058Z,10.6875
2023-03-13T11:05:45.236Z,10.75
2023-03-13T11:10:46.145Z,10.75
2023-03-13T11:15:47.070Z,11.0625
2023-03-13T11:20:47.797Z,11.3125
2023-03-13T11:25:48.713Z,11.375
2023-03-13T11:30:49.511Z,11.5625
2023-03-13T11:35:50.743Z,11.625
2023-03-13T11:40:51.465Z,12
2023-03-13T11:45:52.538Z,11.9375
2023-03-13T11:50:53.181Z,11.9375
2023-03-13T11:55:53.944Z,12
2023-03-13T12:00:55.044Z,12.125
2023-03-13T12:05:55.898Z,12.0625
2023-03-13T12:10:56.770Z,12.625
2023-03-13T12:15:57.737Z,12.8125
2023-03-13T12:20:59.155Z,13
2023-03-13T12:26:00.137Z,13.0625
2023-03-13T12:31:00.957Z,13.1875
2023-03-13T12:36:01.847Z,13.625
2023-03-13T12:41:02.808Z,13.4375
2023-03-13T12:46:03.835Z,13.5625
2023-03-13T12:51:04.755Z,13.6875
2023-03-13T12:56:05.701Z,13.1875
2023-03-13T13:01:06.716Z,13.625
2023-03-13T13:06:07.705Z,14.1875
2023-03-13T13:11:08.945Z,13.9375
2023-03-13T13:16:09.984Z,14.0625
2023-03-13T13:21:13.077Z,13.9375
2023-03-13T13:26:14.311Z,14.0625
2023-03-13T13:31:15.390Z,14.0625
2023-03-13T13:36:16.149Z,14.3125
2023-03-13T13:41:17.216Z,14.5625
2023-03-13T13:51:48.752Z,14.3125
2023-03-13T13:56:50.286Z,14.375
2023-03-13T14:01:50.539Z,14.6875
2023-03-13T14:06:52.660Z,14.375
2023-03-13T14:11:53.676Z,14.5625
2023-03-13T14:16:54.524Z,14.8125
2023-03-13T14:21:55.393Z,14.6875
2023-03-13T14:26:56.575Z,14.875
2023-03-13T14:31:57.535Z,15.125
2023-03-13T14:37:11.151Z,15.4375
2023-03-13T14:41:59.633Z,15.4375
2023-03-13T14:47:00.601Z,15.4375
2023-03-13T14:52:01.474Z,15.4375
2023-03-13T14:57:02.633Z,15.4375
2023-03-13T15:02:03.774Z,15.3125
2023-03-13T15:07:04.217Z,15.375
2023-03-13T15:12:05.373Z,15.3125
2023-03-13T15:17:06.335Z,15.375
2023-03-13T15:22:07.150Z,15.3125
2023-03-13T15:27:07.968Z,15.375
2023-03-13T15:32:09.142Z,14.9375
2023-03-13T15:37:10.259Z,14.5625
2023-03-13T15:42:11.232Z,14.5625
2023-03-13T15:47:12.263Z,14.4375
2023-03-13T15:52:13.271Z,14.375
2023-03-13T15:57:14.207Z,14.375
2023-03-13T16:02:15.144Z,13.5625
2023-03-13T16:07:16.022Z,14.5
2023-03-13T16:12:17.274Z,14.3125
2023-03-13T16:17:17.885Z,14.0625
2023-03-13T16:22:18.899Z,14.125
2023-03-13T16:27:19.942Z,14.125
2023-03-13T16:32:20.929Z,14.125
2023-03-13T16:37:21.816Z,14.0625
2023-03-13T16:42:22.767Z,13.9375
2023-03-13T16:47:23.494Z,13.875
2023-03-13T16:52:24.584Z,14.0625
2023-03-13T16:57:25.810Z,14.0625
2023-03-13T17:02:27.374Z,14
2023-03-13T17:07:27.635Z,13.9375
2023-03-13T17:12:28.644Z,13.75
2023-03-13T17:17:29.479Z,13.75
2023-03-13T17:22:30.227Z,13.6875
2023-03-13T17:27:31.220Z,13.5625
2023-03-13T17:32:32.292Z,13.4375
2023-03-13T17:37:33.204Z,13.375
2023-03-13T17:42:34.226Z,13.25
2023-03-13T17:47:35.110Z,13.1875
2023-03-13T17:52:36.084Z,13.0625
2023-03-13T17:57:37.099Z,13.0625
2023-03-13T18:02:38.127Z,12.9375
2023-03-13T18:07:39.119Z,12.8125
2023-03-13T18:12:40.287Z,13
2023-03-13T18:17:41.227Z,12.75
2023-03-13T18:22:44.677Z,13
2023-03-13T18:27:45.935Z,12.875
2023-03-13T18:32:46.918Z,12.9375
2023-03-13T18:37:47.835Z,12.8125
2023-03-13T18:42:48.819Z,13
2023-03-13T18:47:52.323Z,12.875
2023-03-13T18:52:53.649Z,12.8125
2023-03-13T18:57:54.620Z,13
2023-03-13T19:02:55.526Z,12.875
2023-03-13T19:07:56.444Z,13.0625
2023-03-13T19:12:57.468Z,13.1875
2023-03-13T19:17:58.967Z,13.125
2023-03-13T19:22:59.532Z,13.0625
2023-03-13T19:28:00.466Z,12.875
2023-03-13T19:33:01.337Z,12.25
2023-03-13T19:38:02.175Z,12.75
2023-03-13T19:43:03.317Z,12.75
2023-03-13T19:48:04.067Z,12.8125
2023-03-13T19:53:05.030Z,11.625
2023-03-13T19:58:06.034Z,12.6875
2023-03-13T20:03:07.402Z,12.5625
2023-03-13T20:08:08.318Z,12.5625
2023-03-13T20:13:09.201Z,12.5
2023-03-13T20:18:10.067Z,12.5
2023-03-13T20:23:10.933Z,12.375
2023-03-13T20:28:11.911Z,12.375
2023-03-13T20:33:12.888Z,12.5625
2023-03-13T20:38:13.857Z,12.5625
2023-03-13T20:43:14.791Z,12.5
2023-03-13T21:04:47.947Z,12.25
2023-03-13T21:09:47.961Z,12.3125
2023-03-13T21:14:48.691Z,12.3125
2023-03-13T21:25:20.236Z,12.1875
2023-03-13T21:46:52.076Z,12.0625
2023-03-13T21:51:52.524Z,12
2023-03-13T22:18:56.088Z,11.8125
2023-03-13T22:23:56.090Z,11.9375
2023-03-13T22:28:57.194Z,11.875
2023-03-13T22:39:28.711Z,11.9375
2023-03-13T22:44:29.353Z,11.9375
2023-03-13T22:49:30.062Z,11.875
2023-03-13T22:54:31.164Z,11.75
2023-03-13T22:59:32.042Z,11.75
2023-03-13T23:04:32.987Z,11.75
2023-03-13T23:09:34.058Z,11.5
2023-03-13T23:14:34.829Z,11.6875
2023-03-13T23:19:36.265Z,11.6875
2023-03-13T23:24:36.801Z,11.5625
2023-03-13T23:29:37.622Z,11.4375
2023-03-13T23:34:38.635Z,11.5
2023-03-13T23:39:39.630Z,11.375
2023-03-13T23:44:40.536Z,11.1875
2023-03-13T23:49:41.596Z,11.3125
2023-03-13T23:54:42.638Z,11.1875
2023-03-13T23:59:43.710Z,11.1875
